Time;durP1;ratioP1;P1;durP2;ratioP2;P2;SDS_P1;SDS_P2;PMS_P1;PMS_P2;Temp;Humidity;BMP_temperature;BMP_pressure;BME280_temperature;BME280_humidity;BME280_pressure;Samples;Min_cycle;Max_cycle;Signal;HPM_P1;HPM_P2
2024/04/02 00:00:35;;;;;;;;;;;;;;;5.12;91.75;97569.78;4993808;28;19928;-89
2024/04/02 00:03:00;;;;;;;;;;;;;;;5.26;92.26;97559.63;4992313;28;20060;-90
2024/04/02 00:05:26;;;;;;;;;;;;;;;5.51;89.60;97565.66;5027226;28;19925;-89
2024/04/02 00:07:51;;;;;;;;;;;;;;;5.02;91.78;97567.69;5010964;28;19917;-90
2024/04/02 00:10:17;;;;;;;;;;;;;;;4.91;93.42;97576.16;5007490;28;19924;-89
2024/04/02 00:12:42;;;;;;;;;;;;;;;5.00;94.11;97581.72;4995730;28;19944;-88
2024/04/02 00:15:08;;;;;;;;;;;;;;;5.03;93.35;97587.09;4991822;28;19963;-87
2024/04/02 00:17:33;;;;;;;;;;;;;;;4.75;94.39;97599.44;5007611;28;19922;-87
2024/04/02 00:20:04;;;;;;;;;;;;;;;4.94;94.07;97602.69;5008806;28;20382;-88
2024/04/02 00:22:29;;;;;;;;;;;;;;;5.19;93.84;97605.25;5000897;28;19921;-87
2024/04/02 00:24:55;;;;;;;;;;;;;;;5.10;93.59;97611.16;5007659;28;19922;-88
2024/04/02 00:27:20;;;;;;;;;;;;;;;5.06;94.61;97614.53;5009371;28;20212;-90
2024/04/02 00:29:45;;;;;;;;;;;;;;;5.11;94.77;97618.22;4996986;28;20004;-87
2024/04/02 00:32:11;;;;;;;;;;;;;;;5.27;94.12;97610.78;5011241;28;19971;-86
2024/04/02 00:34:36;;;;;;;;;;;;;;;5.58;92.67;97612.63;5027542;28;19922;-88
2024/04/02 00:37:01;;;;;;;;;;;;;;;5.74;91.42;97612.22;4994456;28;19922;-89
2024/04/02 00:39:26;;;;;;;;;;;;;;;6.11;89.01;97611.59;5012795;28;19926;-89
2024/04/02 00:41:52;;;;;;;;;;;;;;;6.16;88.50;97609.97;5001200;28;19918;-90
2024/04/02 00:44:17;;;;;;;;;;;;;;;6.49;87.31;97611.75;5006307;28;19917;-88
2024/04/02 00:46:43;;;;;;;;;;;;;;;6.50;87.11;97612.66;5010868;28;20517;-89
2024/04/02 00:49:08;;;;;;;;;;;;;;;6.70;85.24;97611.41;5026268;28;20355;-88
2024/04/02 00:51:33;;;;;;;;;;;;;;;6.88;84.39;97616.31;5027187;28;19932;-89
2024/04/02 00:53:59;;;;;;;;;;;;;;;6.98;83.47;97610.38;5027681;28;19928;-88
2024/04/02 00:56:25;;;;;;;;;;;;;;;7.28;82.09;97614.63;5010753;28;20257;-88
2024/04/02 00:58:50;;;;;;;;;;;;;;;7.41;81.21;97614.97;4985696;28;19957;-88
2024/04/02 01:01:15;;;;;;;;;;;;;;;7.70;79.41;97617.38;5019869;28;19926;-88
2024/04/02 01:03:41;;;;;;;;;;;;;;;7.70;79.46;97622.69;4998656;28;19929;-88
2024/04/02 01:06:06;;;;;;;;;;;;;;;7.73;78.94;97622.78;5024580;28;19917;-88
2024/04/02 01:08:31;;;;;;;;;;;;;;;7.77;78.70;97632.63;5019391;28;20047;-87
2024/04/02 01:10:57;;;;;;;;;;;;;;;7.88;77.93;97625.75;5004107;28;19918;-88
2024/04/02 01:13:23;;;;;;;;;;;;;;;7.91;77.51;97627.59;5010570;28;19917;-88
2024/04/02 01:15:48;;;;;;;;;;;;;;;7.95;77.73;97633.03;5020814;28;19925;-89
2024/04/02 01:18:13;;;;;;;;;;;;;;;7.97;77.23;97633.94;5004654;28;19980;-89
2024/04/02 01:20:39;;;;;;;;;;;;;;;7.97;77.37;97631.28;4994856;28;19924;-88
2024/04/02 01:23:06;;;;;;;;;;;;;;;7.92;77.27;97638.25;4994858;28;20479;-89
2024/04/02 01:25:31;;;;;;;;;;;;;;;7.88;77.45;97641.69;5016686;28;19929;-88
2024/04/02 01:27:57;;;;;;;;;;;;;;;7.95;77.12;97641.00;5006843;28;19932;-89
2024/04/02 01:30:22;;;;;;;;;;;;;;;7.96;76.76;97653.41;4992206;28;19925;-88
2024/04/02 01:32:49;;;;;;;;;;;;;;;8.01;76.52;97650.84;5006663;28;19925;-88
2024/04/02 01:35:17;;;;;;;;;;;;;;;8.09;76.04;97662.50;5020913;28;19966;-88
2024/04/02 01:37:44;;;;;;;;;;;;;;;8.12;75.87;97659.03;5007940;28;20321;-90
2024/04/02 01:40:09;;;;;;;;;;;;;;;8.13;75.60;97658.16;5022183;28;19917;-88
2024/04/02 01:42:35;;;;;;;;;;;;;;;8.03;76.01;97658.84;5007968;28;19971;-88
2024/04/02 01:45:00;;;;;;;;;;;;;;;7.85;76.90;97665.53;5011430;28;19938;-89
2024/04/02 01:47:27;;;;;;;;;;;;;;;7.71;77.52;97661.66;5017106;28;20338;-88
2024/04/02 01:49:52;;;;;;;;;;;;;;;7.76;77.11;97670.66;4994999;28;19917;-87
2024/04/02 01:52:17;;;;;;;;;;;;;;;7.72;77.31;97669.69;5010246;28;19924;-89
2024/04/02 01:54:43;;;;;;;;;;;;;;;7.80;76.96;97666.28;5004163;28;19921;-89
2024/04/02 01:57:08;;;;;;;;;;;;;;;7.90;76.03;97670.94;5028034;28;19917;-89
2024/04/02 01:59:33;;;;;;;;;;;;;;;7.84;76.27;97671.69;5007777;28;19918;-88
2024/04/02 02:01:59;;;;;;;;;;;;;;;7.92;75.99;97667.47;5016801;28;19921;-90
2024/04/02 02:04:24;;;;;;;;;;;;;;;7.74;76.60;97672.34;4992283;28;19918;-88
2024/04/02 02:06:49;;;;;;;;;;;;;;;7.55;77.32;97672.78;5021416;28;19973;-88
2024/04/02 02:09:15;;;;;;;;;;;;;;;7.39;77.82;97677.72;4994218;28;19952;-89
2024/04/02 02:11:41;;;;;;;;;;;;;;;7.45;77.52;97685.84;5019664;28;19921;-89
2024/04/02 02:14:06;;;;;;;;;;;;;;;7.70;76.92;97687.31;5003815;28;19917;-88
2024/04/02 02:16:31;;;;;;;;;;;;;;;7.82;75.79;97692.03;5007837;28;19921;-88
2024/04/02 02:18:57;;;;;;;;;;;;;;;7.94;75.20;97694.06;4985978;28;19921;-87
2024/04/02 02:21:23;;;;;;;;;;;;;;;7.96;75.43;97687.94;4988780;28;19921;-86
2024/04/02 02:23:50;;;;;;;;;;;;;;;8.06;75.19;97701.41;5020187;28;19930;-87
2024/04/02 02:26:17;;;;;;;;;;;;;;;8.11;74.73;97694.44;5006812;28;19964;-89
2024/04/02 02:28:42;;;;;;;;;;;;;;;8.18;74.16;97694.59;4999348;28;19937;-88
2024/04/02 02:31:07;;;;;;;;;;;;;;;8.19;74.33;97709.69;4992194;28;19922;-88
2024/04/02 02:33:32;;;;;;;;;;;;;;;8.17;73.89;97699.88;5002550;28;19917;-87
2024/04/02 02:35:58;;;;;;;;;;;;;;;8.24;73.46;97701.81;5022261;28;19963;-88
2024/04/02 02:38:23;;;;;;;;;;;;;;;8.26;73.70;97705.41;5007833;28;19924;-89
2024/04/02 02:40:48;;;;;;;;;;;;;;;8.21;73.80;97713.25;4996161;28;19929;-88
2024/04/02 02:43:14;;;;;;;;;;;;;;;8.20;74.06;97716.78;5003058;28;19976;-87
2024/04/02 02:45:50;;;;;;;;;;;;;;;8.21;73.72;97723.00;5023890;28;19928;-89
2024/04/02 02:48:15;;;;;;;;;;;;;;;8.16;73.74;97716.69;5006130;28;19924;-89
2024/04/02 02:50:40;;;;;;;;;;;;;;;8.23;73.27;97719.50;5007924;28;19925;-90
2024/04/02 02:53:05;;;;;;;;;;;;;;;8.22;73.49;97730.09;4987293;28;19921;-89
2024/04/02 02:55:31;;;;;;;;;;;;;;;8.18;73.95;97726.47;5005850;28;19922;-89
2024/04/02 02:57:56;;;;;;;;;;;;;;;8.14;74.24;97726.38;4991361;28;19928;-88
2024/04/02 03:00:21;;;;;;;;;;;;;;;8.17;73.35;97732.66;5003149;28;19923;-90
2024/04/02 03:02:47;;;;;;;;;;;;;;;8.20;73.75;97735.41;5018775;28;19918;-89
2024/04/02 03:05:12;;;;;;;;;;;;;;;8.15;73.63;97733.50;4993502;28;19925;-89
2024/04/02 03:07:38;;;;;;;;;;;;;;;8.12;73.88;97739.63;5005211;28;19983;-89
2024/04/02 03:10:03;;;;;;;;;;;;;;;8.00;74.52;97739.38;4992290;28;19921;-90
2024/04/02 03:12:28;;;;;;;;;;;;;;;7.89;74.82;97743.50;5001011;28;19929;-89
2024/04/02 03:14:54;;;;;;;;;;;;;;;7.89;74.92;97740.84;5006283;28;19930;-89
2024/04/02 03:17:19;;;;;;;;;;;;;;;8.01;74.71;97743.81;5006411;28;19947;-89
2024/04/02 03:19:45;;;;;;;;;;;;;;;7.98;74.68;97743.72;4995822;28;19922;-90
2024/04/02 03:22:10;;;;;;;;;;;;;;;7.83;75.31;97751.34;5019886;28;19921;-89
2024/04/02 03:24:35;;;;;;;;;;;;;;;7.62;76.42;97749.97;4989567;28;19925;-89
2024/04/02 03:27:02;;;;;;;;;;;;;;;7.56;76.25;97755.09;5008198;28;19936;-89
2024/04/02 03:29:27;;;;;;;;;;;;;;;7.65;75.92;97757.97;5023491;28;19921;-89
2024/04/02 03:31:53;;;;;;;;;;;;;;;7.81;75.45;97753.97;4988258;28;19925;-88
2024/04/02 03:34:18;;;;;;;;;;;;;;;7.82;75.07;97755.75;4992364;28;20001;-88
2024/04/02 03:36:44;;;;;;;;;;;;;;;7.77;75.63;97762.72;4988559;28;19922;-90
2024/04/02 03:39:09;;;;;;;;;;;;;;;7.72;76.14;97764.34;5006771;28;20363;-88
2024/04/02 03:41:36;;;;;;;;;;;;;;;7.66;75.88;97769.50;5002555;28;19935;-89
2024/04/02 03:44:02;;;;;;;;;;;;;;;7.65;75.90;97773.00;5019471;28;19932;-89
2024/04/02 03:46:28;;;;;;;;;;;;;;;7.39;76.61;97760.00;5004447;28;19926;-88
2024/04/02 03:48:53;;;;;;;;;;;;;;;7.29;77.34;97767.69;5015768;28;20256;-89
2024/04/02 03:51:18;;;;;;;;;;;;;;;7.11;78.13;97762.78;4990206;28;20012;-90
2024/04/02 03:53:44;;;;;;;;;;;;;;;6.79;79.37;97770.72;5013970;28;19925;-89
2024/04/02 03:56:09;;;;;;;;;;;;;;;6.79;79.72;97770.72;5008247;28;19925;-89
2024/04/02 03:58:34;;;;;;;;;;;;;;;6.63;80.43;97768.50;5008989;28;20297;-89
2024/04/02 04:01:00;;;;;;;;;;;;;;;6.67;80.33;97776.59;5005176;28;20600;-89
2024/04/02 04:03:26;;;;;;;;;;;;;;;6.66;80.21;97774.78;5021456;28;19943;-88
2024/04/02 04:05:58;;;;;;;;;;;;;;;6.86;79.38;97771.81;5020273;28;20012;-88
2024/04/02 04:08:28;;;;;;;;;;;;;;;6.80;79.53;97776.91;5001613;28;20008;-88
2024/04/02 04:10:53;;;;;;;;;;;;;;;6.82;79.63;97780.53;5003037;28;19925;-88
2024/04/02 04:13:22;;;;;;;;;;;;;;;6.92;79.46;97783.47;5005567;28;19917;-89
2024/04/02 04:15:51;;;;;;;;;;;;;;;6.91;79.44;97780.78;5020808;28;19917;-89
2024/04/02 04:18:16;;;;;;;;;;;;;;;6.78;80.43;97784.84;5011553;28;20863;-88
2024/04/02 04:20:49;;;;;;;;;;;;;;;6.97;79.23;97785.38;5026757;28;20008;-88
2024/04/02 04:23:15;;;;;;;;;;;;;;;7.00;78.44;97788.13;5021691;28;19948;-88
2024/04/02 04:25:40;;;;;;;;;;;;;;;7.14;77.84;97784.97;5007615;28;20265;-90
2024/04/02 04:28:05;;;;;;;;;;;;;;;7.25;77.35;97794.97;5033683;28;19922;-89
2024/04/02 04:30:31;;;;;;;;;;;;;;;7.32;77.13;97788.97;5008754;28;19926;-88
2024/04/02 04:32:56;;;;;;;;;;;;;;;7.18;77.74;97797.44;4994167;28;19989;-88
2024/04/02 04:35:22;;;;;;;;;;;;;;;7.15;77.52;97805.34;5005263;28;19928;-88
2024/04/02 04:37:47;;;;;;;;;;;;;;;7.34;76.69;97804.09;5012534;28;20426;-89
2024/04/02 04:40:12;;;;;;;;;;;;;;;7.42;76.38;97810.47;5029260;28;20313;-88
2024/04/02 04:42:38;;;;;;;;;;;;;;;7.29;77.29;97805.72;5013092;28;20003;-89
2024/04/02 04:45:03;;;;;;;;;;;;;;;7.34;76.80;97812.03;5010290;28;19917;-88
2024/04/02 04:47:29;;;;;;;;;;;;;;;7.32;76.99;97818.16;5027331;28;20044;-90
2024/04/02 04:49:54;;;;;;;;;;;;;;;7.35;76.40;97821.78;4995343;28;20275;-89
2024/04/02 04:52:19;;;;;;;;;;;;;;;7.39;76.16;97815.72;5010306;28;19995;-89
2024/04/02 04:54:45;;;;;;;;;;;;;;;7.25;76.96;97814.44;5011102;28;20000;-88
2024/04/02 04:57:10;;;;;;;;;;;;;;;7.35;76.18;97828.84;5005387;28;19926;-89
2024/04/02 04:59:35;;;;;;;;;;;;;;;7.30;76.64;97830.50;4994704;28;20011;-89
2024/04/02 05:02:01;;;;;;;;;;;;;;;7.25;76.81;97832.13;5037900;28;19925;-90
2024/04/02 05:04:26;;;;;;;;;;;;;;;7.51;75.44;97830.16;5012705;28;19932;-89
2024/04/02 05:06:52;;;;;;;;;;;;;;;7.45;75.36;97831.78;5022725;28;20999;-88
2024/04/02 05:09:17;;;;;;;;;;;;;;;7.69;74.59;97835.94;5015765;28;19922;-90
2024/04/02 05:11:43;;;;;;;;;;;;;;;7.57;75.42;97846.25;5021575;28;19921;-88
2024/04/02 05:14:08;;;;;;;;;;;;;;;7.65;74.65;97850.00;5010587;28;19925;-89
2024/04/02 05:16:34;;;;;;;;;;;;;;;7.62;74.73;97845.53;5026300;28;19944;-89
2024/04/02 05:19:00;;;;;;;;;;;;;;;7.63;74.44;97849.06;5018880;28;20016;-89
2024/04/02 05:21:25;;;;;;;;;;;;;;;7.81;73.77;97853.94;5016833;28;19933;-88
2024/04/02 05:23:51;;;;;;;;;;;;;;;7.83;73.92;97855.78;5017004;28;19930;-88
2024/04/02 05:26:17;;;;;;;;;;;;;;;7.91;73.28;97862.22;5021563;28;19949;-87
2024/04/02 05:28:43;;;;;;;;;;;;;;;7.83;73.54;97862.88;5016491;28;19928;-88
2024/04/02 05:31:09;;;;;;;;;;;;;;;7.91;73.22;97866.63;5021296;28;19921;-88
2024/04/02 05:33:34;;;;;;;;;;;;;;;7.91;73.06;97864.88;5014195;28;19921;-88
2024/04/02 05:36:00;;;;;;;;;;;;;;;7.86;73.43;97877.13;5017382;28;19975;-88
2024/04/02 05:38:27;;;;;;;;;;;;;;;7.83;73.68;97879.69;5008059;28;19960;-87
2024/04/02 05:40:52;;;;;;;;;;;;;;;7.84;73.78;97872.63;5008339;28;19922;-89
2024/04/02 05:43:18;;;;;;;;;;;;;;;7.88;73.62;97878.06;5006674;28;19953;-88
2024/04/02 05:45:43;;;;;;;;;;;;;;;8.01;73.47;97879.28;5023791;28;20027;-89
2024/04/02 05:48:09;;;;;;;;;;;;;;;8.01;73.19;97881.03;5008266;28;19917;-89
2024/04/02 05:50:34;;;;;;;;;;;;;;;8.05;72.88;97880.22;5026211;28;19931;-89
2024/04/02 05:53:00;;;;;;;;;;;;;;;7.99;73.39;97880.97;5009326;28;20021;-89
2024/04/02 05:55:25;;;;;;;;;;;;;;;7.99;72.87;97875.66;4997028;28;19995;-90
2024/04/02 05:57:50;;;;;;;;;;;;;;;8.17;72.26;97880.56;5009773;28;20430;-89
2024/04/02 06:00:16;;;;;;;;;;;;;;;8.39;70.99;97884.69;5001430;28;19973;-88
2024/04/02 06:02:44;;;;;;;;;;;;;;;8.56;70.89;97891.28;5009262;28;20036;-91
2024/04/02 06:05:09;;;;;;;;;;;;;;;8.59;70.88;97893.13;4993333;28;19957;-89
2024/04/02 06:07:36;;;;;;;;;;;;;;;8.58;70.11;97889.56;5009025;28;19964;-89
2024/04/02 06:10:01;;;;;;;;;;;;;;;8.54;70.72;97894.78;5011518;28;19964;-90
2024/04/02 06:12:27;;;;;;;;;;;;;;;8.56;70.06;97890.38;5010125;28;20371;-89
2024/04/02 06:14:52;;;;;;;;;;;;;;;8.52;70.52;97899.13;5009368;28;19923;-89
2024/04/02 06:17:18;;;;;;;;;;;;;;;8.62;70.21;97902.03;5010978;28;20248;-89
2024/04/02 06:19:43;;;;;;;;;;;;;;;8.66;69.44;97909.22;5010635;28;20282;-89
2024/04/02 06:22:09;;;;;;;;;;;;;;;8.78;69.56;97907.75;4993900;28;20060;-90
2024/04/02 06:24:34;;;;;;;;;;;;;;;8.75;69.89;97905.88;5007326;28;19917;-89
2024/04/02 06:27:00;;;;;;;;;;;;;;;8.67;70.52;97921.69;5008348;28;20617;-90
2024/04/02 06:29:27;;;;;;;;;;;;;;;8.78;69.49;97929.91;5008151;28;20028;-87
2024/04/02 06:31:53;;;;;;;;;;;;;;;8.80;69.56;97922.84;4992348;28;20393;-89
2024/04/02 06:34:19;;;;;;;;;;;;;;;8.77;69.83;97927.19;5005169;28;19922;-89
2024/04/02 06:36:44;;;;;;;;;;;;;;;8.78;69.75;97929.91;5005454;28;20252;-88
2024/04/02 06:39:10;;;;;;;;;;;;;;;8.69;69.77;97924.38;5009924;28;19923;-90
2024/04/02 06:41:35;;;;;;;;;;;;;;;8.87;69.43;97929.22;5023624;28;19921;-89
2024/04/02 06:44:01;;;;;;;;;;;;;;;8.81;69.50;97935.28;5009285;28;20205;-89
2024/04/02 06:46:27;;;;;;;;;;;;;;;8.90;69.04;97934.59;5010150;28;20472;-90
2024/04/02 06:48:52;;;;;;;;;;;;;;;8.72;69.93;97936.00;4991963;28;20391;-89
2024/04/02 06:51:18;;;;;;;;;;;;;;;8.73;70.30;97937.78;5008332;28;20020;-90
2024/04/02 06:53:44;;;;;;;;;;;;;;;8.78;70.37;97943.22;4995140;28;19918;-88
2024/04/02 06:56:10;;;;;;;;;;;;;;;8.45;72.46;97944.19;5009263;28;19938;-89
2024/04/02 06:58:37;;;;;;;;;;;;;;;8.23;74.03;97942.69;5007810;28;19925;-90
2024/04/02 07:01:03;;;;;;;;;;;;;;;8.06;74.95;97946.69;4990695;28;20016;-89
2024/04/02 07:03:28;;;;;;;;;;;;;;;8.09;75.35;97944.09;4988295;28;19940;-92
2024/04/02 07:05:55;;;;;;;;;;;;;;;8.15;75.03;97951.38;4991740;28;19925;-89
2024/04/02 07:08:25;;;;;;;;;;;;;;;8.20;74.45;97953.28;4995304;28;19979;-90
2024/04/02 07:11:03;;;;;;;;;;;;;;;8.27;73.69;97951.66;5015722;28;19921;-89
2024/04/02 07:13:32;;;;;;;;;;;;;;;8.36;74.13;97965.22;5012044;28;19960;-88
2024/04/02 07:15:57;;;;;;;;;;;;;;;8.46;73.66;97964.59;5015712;28;19957;-88
2024/04/02 07:18:23;;;;;;;;;;;;;;;8.56;73.57;97970.13;5006124;28;20417;-91
2024/04/02 07:20:58;;;;;;;;;;;;;;;8.50;74.41;97973.53;4993936;28;19929;-89
2024/04/02 07:23:23;;;;;;;;;;;;;;;8.54;73.37;97978.09;4992544;28;19929;-87
2024/04/02 07:25:49;;;;;;;;;;;;;;;8.54;74.04;97994.03;4993652;28;20244;-89
2024/04/02 07:28:14;;;;;;;;;;;;;;;8.72;73.20;97998.91;4991369;28;19957;-90
2024/04/02 07:30:40;;;;;;;;;;;;;;;8.71;72.62;97999.75;5011833;28;19917;-89
2024/04/02 07:33:07;;;;;;;;;;;;;;;8.76;72.83;98010.50;5000477;28;19944;-90
2024/04/02 07:35:35;;;;;;;;;;;;;;;8.87;72.76;98007.25;4998093;28;20057;-89
2024/04/02 07:38:01;;;;;;;;;;;;;;;8.95;72.03;98016.31;5009489;28;19922;-90
2024/04/02 07:40:27;;;;;;;;;;;;;;;9.06;71.43;98018.34;4990385;28;19929;-89
2024/04/02 07:42:53;;;;;;;;;;;;;;;8.98;71.66;98021.72;4989519;28;19922;-90
2024/04/02 07:45:18;;;;;;;;;;;;;;;9.19;70.45;98023.06;5006118;28;19929;-87
2024/04/02 07:47:46;;;;;;;;;;;;;;;9.27;70.48;98023.25;5006962;28;19918;-89
2024/04/02 07:50:11;;;;;;;;;;;;;;;9.39;69.51;98021.78;4993411;28;19936;-87
2024/04/02 07:52:39;;;;;;;;;;;;;;;9.42;69.71;98023.59;5011838;28;19937;-89
2024/04/02 07:55:04;;;;;;;;;;;;;;;9.71;68.86;98018.91;5015951;28;20357;-92
2024/04/02 07:57:30;;;;;;;;;;;;;;;9.96;68.29;98026.50;5026280;28;19932;-90
2024/04/02 07:59:56;;;;;;;;;;;;;;;9.87;67.53;98015.69;5008095;28;19918;-89
2024/04/02 08:02:23;;;;;;;;;;;;;;;10.07;67.71;98010.75;5008052;28;19922;-89
2024/04/02 08:04:52;;;;;;;;;;;;;;;10.43;66.05;98023.00;5012096;28;20422;-89
2024/04/02 08:07:18;;;;;;;;;;;;;;;10.88;64.54;98025.59;5010898;28;19944;-89
2024/04/02 08:09:44;;;;;;;;;;;;;;;11.80;61.31;98011.78;5008580;28;20298;-87
2024/04/02 08:12:12;;;;;;;;;;;;;;;12.21;60.60;98014.09;5009064;28;19928;-88
2024/04/02 08:14:38;;;;;;;;;;;;;;;12.29;59.38;98017.75;5007277;28;19937;-89
2024/04/02 08:17:03;;;;;;;;;;;;;;;12.24;58.03;98018.59;5007704;28;19984;-88
2024/04/02 08:19:30;;;;;;;;;;;;;;;12.11;58.86;98019.31;5009960;28;20414;-89
2024/04/02 08:21:56;;;;;;;;;;;;;;;13.14;55.97;98015.84;5010336;28;20703;-88
2024/04/02 08:24:24;;;;;;;;;;;;;;;12.53;56.37;98017.09;5011088;28;19933;-89
2024/04/02 08:26:50;;;;;;;;;;;;;;;11.71;58.35;98013.44;5009807;28;19918;-89
2024/04/02 08:29:15;;;;;;;;;;;;;;;11.09;60.48;98029.47;5002048;28;19926;-87
2024/04/02 08:31:40;;;;;;;;;;;;;;;10.78;61.81;98039.66;4997043;28;19971;-90
2024/04/02 08:34:07;;;;;;;;;;;;;;;10.53;62.71;98038.31;5032383;28;19922;-89
2024/04/02 08:36:34;;;;;;;;;;;;;;;10.38;63.08;98051.34;5011937;28;19925;-87
2024/04/02 08:38:59;;;;;;;;;;;;;;;10.16;62.89;98050.03;5015674;28;19922;-88
2024/04/02 08:41:26;;;;;;;;;;;;;;;10.01;64.18;98050.59;5020961;28;19936;-88
2024/04/02 08:43:53;;;;;;;;;;;;;;;9.62;66.99;98061.31;5011485;28;19905;-88
2024/04/02 08:46:19;;;;;;;;;;;;;;;9.19;73.03;98061.22;5029421;28;19921;-89
2024/04/02 08:48:45;;;;;;;;;;;;;;;9.05;73.19;98060.00;5019244;28;19922;-88
2024/04/02 08:51:10;;;;;;;;;;;;;;;9.10;74.56;98065.44;5011030;28;19948;-90
2024/04/02 08:53:35;;;;;;;;;;;;;;;9.47;74.20;98070.75;4993757;28;19929;-88
2024/04/02 08:56:02;;;;;;;;;;;;;;;9.77;70.43;98080.28;5007205;28;20346;-87
2024/04/02 08:58:28;;;;;;;;;;;;;;;9.61;70.06;98071.06;5013216;28;19925;-89
2024/04/02 09:00:54;;;;;;;;;;;;;;;9.44;68.73;98078.69;5016989;28;20024;-89
2024/04/02 09:03:20;;;;;;;;;;;;;;;9.57;70.08;98087.84;4995084;28;20174;-90
2024/04/02 09:05:45;;;;;;;;;;;;;;;9.80;74.00;98082.13;5009530;28;19921;-92
2024/04/02 09:08:13;;;;;;;;;;;;;;;9.96;69.93;98085.13;4991465;28;20284;-91
2024/04/02 09:10:39;;;;;;;;;;;;;;;9.68;70.02;98089.00;4991833;28;19918;-89
2024/04/02 09:13:04;;;;;;;;;;;;;;;9.45;70.72;98093.78;5025159;28;19929;-89
2024/04/02 09:15:30;;;;;;;;;;;;;;;9.27;72.84;98096.03;5006717;28;20397;-91
2024/04/02 09:17:55;;;;;;;;;;;;;;;8.72;72.70;98099.97;5007872;28;19998;-89
2024/04/02 09:20:21;;;;;;;;;;;;;;;8.50;76.66;98117.09;4983573;28;19935;-91
2024/04/02 09:22:47;;;;;;;;;;;;;;;8.46;78.27;98118.78;4992640;28;20537;-91
2024/04/02 09:25:13;;;;;;;;;;;;;;;8.54;nan;98115.44;4997546;28;20024;-95
2024/04/02 09:27:38;;;;;;;;;;;;;;;8.61;80.90;98117.38;4998318;28;20020;-91
2024/04/02 09:30:04;;;;;;;;;;;;;;;8.89;78.97;98117.25;5003542;28;19972;-91
2024/04/02 09:32:33;;;;;;;;;;;;;;;9.96;75.52;98110.88;5012544;28;19918;-94
2024/04/02 09:34:59;;;;;;;;;;;;;;;11.37;71.86;98102.91;5013120;28;20567;-92
2024/04/02 09:37:29;;;;;;;;;;;;;;;10.72;70.39;98107.13;4989954;28;19921;-91
2024/04/02 09:39:57;;;;;;;;;;;;;;;11.61;69.00;98097.94;5010921;28;19917;-93
2024/04/02 09:42:23;;;;;;;;;;;;;;;12.57;65.69;98092.97;5010525;28;19924;-93
2024/04/02 09:44:51;;;;;;;;;;;;;;;12.38;63.77;98099.00;5027262;28;19933;-91
2024/04/02 09:47:18;;;;;;;;;;;;;;;12.45;59.62;98092.81;5016838;28;19975;-94
2024/04/02 09:49:48;;;;;;;;;;;;;;;13.24;56.98;98098.09;5019368;28;19924;-91
2024/04/02 09:52:15;;;;;;;;;;;;;;;13.45;56.38;98079.50;5018182;28;20016;-92
2024/04/02 09:54:42;;;;;;;;;;;;;;;14.39;54.11;98075.56;5019314;28;19922;-92
2024/04/02 09:57:09;;;;;;;;;;;;;;;15.21;50.92;98065.88;5007656;28;19979;-93
2024/04/02 09:59:37;;;;;;;;;;;;;;;14.43;51.04;98066.63;5034816;28;19918;-91
2024/04/02 10:02:02;;;;;;;;;;;;;;;15.31;48.34;98051.53;5019278;28;19957;-93
2024/04/02 10:04:29;;;;;;;;;;;;;;;15.61;47.70;98066.72;5019947;28;19968;-91
2024/04/02 10:07:00;;;;;;;;;;;;;;;14.77;47.49;98054.19;5020189;28;19960;-94
2024/04/02 10:09:40;;;;;;;;;;;;;;;15.04;46.81;98060.47;5018187;28;19917;-90
2024/04/02 10:12:06;;;;;;;;;;;;;;;14.51;48.84;98070.25;4995025;28;19922;-88
2024/04/02 10:14:36;;;;;;;;;;;;;;;15.14;46.96;98062.31;5003856;28;19987;-92
2024/04/02 10:17:02;;;;;;;;;;;;;;;14.23;48.28;98071.00;5021485;28;19976;-88
2024/04/02 10:19:29;;;;;;;;;;;;;;;13.56;49.64;98067.09;5009808;28;19922;-89
2024/04/02 10:21:57;;;;;;;;;;;;;;;13.10;51.23;98079.19;5013758;28;20323;-89
2024/04/02 10:24:24;;;;;;;;;;;;;;;13.85;48.37;98079.78;5001679;28;19925;-90
2024/04/02 10:26:50;;;;;;;;;;;;;;;15.64;44.69;98064.09;5031747;28;20848;-93
2024/04/02 10:29:31;;;;;;;;;;;;;;;15.91;42.52;98076.59;5001958;28;19964;-91
2024/04/02 10:32:02;;;;;;;;;;;;;;;16.32;41.33;98071.03;5003011;28;19921;-93
2024/04/02 10:34:29;;;;;;;;;;;;;;;16.99;39.24;98045.53;5004586;28;19918;-91
2024/04/02 10:36:56;;;;;;;;;;;;;;;15.76;41.39;98055.06;5001294;28;19929;-92
2024/04/02 10:39:23;;;;;;;;;;;;;;;15.26;43.83;98064.97;5015555;28;19929;-91
2024/04/02 10:41:52;;;;;;;;;;;;;;;15.34;42.86;98070.38;4984315;28;19921;-89
2024/04/02 10:44:17;;;;;;;;;;;;;;;14.08;44.41;98077.19;5018160;28;19926;-89
2024/04/02 10:46:43;;;;;;;;;;;;;;;14.37;44.95;98070.19;5001767;28;19921;-90
2024/04/02 10:49:09;;;;;;;;;;;;;;;14.38;45.44;98071.97;4999316;28;19922;-90
2024/04/02 10:51:34;;;;;;;;;;;;;;;14.19;45.28;98063.84;5012952;28;19922;-92
2024/04/02 10:54:00;;;;;;;;;;;;;;;13.78;46.33;98073.47;4999506;28;19976;-90
2024/04/02 10:56:26;;;;;;;;;;;;;;;13.39;45.75;98066.06;5000959;28;19918;-91
2024/04/02 10:58:53;;;;;;;;;;;;;;;14.25;45.20;98061.19;5018727;28;20012;-94
2024/04/02 11:01:19;;;;;;;;;;;;;;;14.45;43.70;98064.81;5006421;28;19922;-90
2024/04/02 11:03:47;;;;;;;;;;;;;;;13.66;45.80;98062.69;5000246;28;19924;-88
2024/04/02 11:06:13;;;;;;;;;;;;;;;15.08;43.71;98052.44;4999034;28;19930;-91
2024/04/02 11:08:43;;;;;;;;;;;;;;;16.24;40.36;98050.44;5030816;28;20407;-89
2024/04/02 11:11:23;;;;;;;;;;;;;;;16.81;38.39;98034.91;5016288;28;19948;-91
2024/04/02 11:13:49;;;;;;;;;;;;;;;16.17;39.54;98046.88;4971213;28;19964;-91
2024/04/02 11:16:15;;;;;;;;;;;;;;;14.94;43.28;98047.94;4995532;28;19976;-91
2024/04/02 11:18:40;;;;;;;;;;;;;;;13.82;44.55;98066.34;4999884;28;19928;-91
2024/04/02 11:21:13;;;;;;;;;;;;;;;13.50;46.50;98056.31;5000169;28;19914;-91
2024/04/02 11:26:28;;;;;;;;;;;;;;;13.65;45.61;98068.91;5030597;28;19921;-90
2024/04/02 11:29:07;;;;;;;;;;;;;;;13.67;44.08;98051.06;5019711;28;19924;-89
2024/04/02 11:31:32;;;;;;;;;;;;;;;15.36;41.16;98057.81;5011564;28;19952;-88
2024/04/02 11:34:00;;;;;;;;;;;;;;;17.61;37.12;98046.81;5015084;28;20286;-90
2024/04/02 11:36:25;;;;;;;;;;;;;;;16.56;39.97;98052.97;5015941;28;19925;-90
2024/04/02 11:38:51;;;;;;;;;;;;;;;16.84;39.64;98045.66;5003119;28;19926;-90
2024/04/02 11:41:16;;;;;;;;;;;;;;;15.37;40.94;98054.22;5016874;28;19920;-88
2024/04/02 11:43:43;;;;;;;;;;;;;;;15.05;41.66;98040.81;5001314;28;19930;-90
2024/04/02 11:46:08;;;;;;;;;;;;;;;16.25;39.81;98050.44;4999555;28;19929;-89
2024/04/02 11:48:34;;;;;;;;;;;;;;;15.51;41.26;98044.34;4998245;28;19943;-88
2024/04/02 11:50:59;;;;;;;;;;;;;;;16.10;40.01;98043.34;5020394;28;19913;-90
2024/04/02 11:53:24;;;;;;;;;;;;;;;17.17;38.51;98029.22;5002453;28;20013;-90
2024/04/02 11:55:50;;;;;;;;;;;;;;;18.00;38.56;98033.81;5040005;28;19926;-90
2024/04/02 12:01:03;;;;;;;;;;;;;;;16.49;39.97;98046.75;5044856;28;19925;-91
2024/04/02 12:03:29;;;;;;;;;;;;;;;17.70;38.95;98056.63;5010814;28;19928;-90
2024/04/02 12:05:54;;;;;;;;;;;;;;;16.83;39.78;98062.75;5022432;28;19976;-89
2024/04/02 12:08:20;;;;;;;;;;;;;;;17.55;37.38;98067.56;5001870;28;19918;-92
2024/04/02 12:10:45;;;;;;;;;;;;;;;18.64;35.96;98043.81;4997763;28;19984;-89
2024/04/02 12:13:10;;;;;;;;;;;;;;;17.57;36.40;98066.63;5011293;28;19926;-91
2024/04/02 12:15:36;;;;;;;;;;;;;;;18.20;35.31;98064.22;5031405;28;19968;-91
2024/04/02 12:18:01;;;;;;;;;;;;;;;18.46;34.59;98044.06;5013396;28;19973;-92
2024/04/02 12:20:27;;;;;;;;;;;;;;;17.28;37.37;98058.78;5015100;28;19945;-89
2024/04/02 12:22:52;;;;;;;;;;;;;;;16.47;39.12;98058.41;5016821;28;19979;-89
2024/04/02 12:25:17;;;;;;;;;;;;;;;17.87;36.79;98062.78;5033412;28;19921;-90
2024/04/02 12:27:44;;;;;;;;;;;;;;;16.82;39.89;98069.94;5015722;28;20020;-92
2024/04/02 12:30:10;;;;;;;;;;;;;;;15.17;43.26;98085.56;5011369;28;19960;-92
2024/04/02 12:32:35;;;;;;;;;;;;;;;13.81;46.93;98088.69;5014310;28;19922;-92
2024/04/02 12:35:02;;;;;;;;;;;;;;;13.04;53.72;98112.19;5000608;28;19937;-92
2024/04/02 12:37:29;;;;;;;;;;;;;;;14.38;53.83;98089.88;5002606;28;19918;-91
2024/04/02 12:39:55;;;;;;;;;;;;;;;15.24;48.92;98084.69;5031744;28;19918;-90
2024/04/02 12:42:21;;;;;;;;;;;;;;;15.67;49.66;98082.03;5030373;28;20536;-91
2024/04/02 12:44:48;;;;;;;;;;;;;;;17.75;44.11;98071.00;5010469;28;19933;-92
2024/04/02 12:47:13;;;;;;;;;;;;;;;18.24;40.06;98065.03;5025933;28;19925;-90
2024/04/02 12:49:38;;;;;;;;;;;;;;;19.72;37.59;98067.38;5013130;28;20290;-93
2024/04/02 12:52:05;;;;;;;;;;;;;;;20.85;34.80;98066.97;4996889;28;19921;-92